Terminal Aerodrome Forecast
Issued by NWS Pocatello, ID

Home | Current Version | Previous Version | Text Only | Print | Product List | Glossary On
Versions: 1 2 3 4 5 6 7 8 9 10 11 12 13 14
000
FTUS45 KPIH 172300
TAFBYI
TAF
KBYI 172326Z 1800/1824 19010G18KT P6SM SCT100
     FM180800 23012G22KT P6SM VCSH SCT040 OVC060
     FM181000 26020G30KT P6SM -SHRA BKN030 OVC050
     FM181900 27018G28KT P6SM VCSH SCT040 BKN070=

USA.gov is the U.S. government's official web portal to all federal, state and local government web resources and services.